createdAt,value
2019-01-04T00:00:56.889Z,5.10
2019-01-04T00:03:26.266Z,5.10
2019-01-04T00:05:55.767Z,5.10
2019-01-04T00:08:25.155Z,5.10
2019-01-04T00:10:54.495Z,5.00
2019-01-04T00:13:23.900Z,5.00
2019-01-04T00:15:53.312Z,5.10
2019-01-04T00:18:22.684Z,5.00
2019-01-04T00:20:52.112Z,5.00
2019-01-04T00:23:21.721Z,5.10
2019-01-04T00:25:51.151Z,5.10
2019-01-04T00:28:20.707Z,5.10
2019-01-04T00:30:50.051Z,5.10
2019-01-04T00:33:19.512Z,5.10
2019-01-04T00:35:48.892Z,5.10
2019-01-04T00:38:18.580Z,5.10
2019-01-04T00:40:47.936Z,5.20
2019-01-04T00:43:17.335Z,5.10
2019-01-04T00:45:46.767Z,5.10
2019-01-04T00:48:16.067Z,5.10
2019-01-04T00:50:45.466Z,5.10
2019-01-04T00:53:15.137Z,5.10
2019-01-04T00:56:11.465Z,5.10
2019-01-04T00:59:26.351Z,5.10
2019-01-04T01:02:34.192Z,5.00
2019-01-04T01:05:36.881Z,4.90
2019-01-04T01:08:42.824Z,4.80
2019-01-04T01:11:38.734Z,4.80
2019-01-04T01:14:38.255Z,4.70
2019-01-04T01:17:50.315Z,4.70
2019-01-04T01:20:56.124Z,4.70
2019-01-04T01:24:08.533Z,4.70
2019-01-04T01:27:24.786Z,4.80
2019-01-04T01:30:30.445Z,4.80
2019-01-04T01:33:16.658Z,4.80
2019-01-04T01:36:15.403Z,4.80
2019-01-04T01:39:34.502Z,4.80
2019-01-04T01:42:46.348Z,4.80
2019-01-04T01:45:46.507Z,4.80
2019-01-04T01:48:31.756Z,4.80
2019-01-04T01:51:43.805Z,4.80
2019-01-04T01:54:13.173Z,4.80
2019-01-04T01:56:42.610Z,4.80
2019-01-04T01:59:11.956Z,4.90
2019-01-04T02:01:41.332Z,4.90
2019-01-04T02:04:10.765Z,4.90
2019-01-04T02:06:40.096Z,4.90
2019-01-04T02:09:11.239Z,5.00
2019-01-04T02:11:40.647Z,5.00
2019-01-04T02:14:10.078Z,5.00
2019-01-04T02:16:39.460Z,5.00
2019-01-04T02:19:08.895Z,4.90
2019-01-04T02:21:38.447Z,4.90
2019-01-04T02:24:07.866Z,4.90
2019-01-04T02:26:37.266Z,4.90
2019-01-04T02:29:06.591Z,4.90
2019-01-04T02:31:35.918Z,4.90
2019-01-04T02:34:05.336Z,4.90
2019-01-04T02:36:34.874Z,4.90
2019-01-04T02:39:07.557Z,4.90
2019-01-04T02:41:36.892Z,4.80
2019-01-04T02:44:06.305Z,4.80
2019-01-04T02:46:35.714Z,4.80
2019-01-04T02:49:05.092Z,4.80
2019-01-04T02:51:34.477Z,4.70
2019-01-04T02:54:03.819Z,4.70
2019-01-04T02:56:33.234Z,4.70
2019-01-04T02:59:02.611Z,4.70
2019-01-04T03:01:32.009Z,4.80
2019-01-04T03:04:03.425Z,4.70
2019-01-04T03:06:32.882Z,4.60
2019-01-04T03:09:02.259Z,4.60
2019-01-04T03:11:31.586Z,4.50
2019-01-04T03:14:00.898Z,4.40
2019-01-04T03:16:30.235Z,4.40
2019-01-04T03:18:59.572Z,4.30
2019-01-04T03:21:28.969Z,4.30
2019-01-04T03:23:58.351Z,4.20
2019-01-04T03:26:27.823Z,4.10
2019-01-04T03:28:57.120Z,4.10
2019-01-04T03:31:26.479Z,4.10
2019-01-04T03:33:55.960Z,4.00
2019-01-04T03:36:25.550Z,4.00
2019-01-04T03:38:54.936Z,4.00
2019-01-04T03:41:24.281Z,4.00
2019-01-04T03:43:53.863Z,4.00
2019-01-04T03:46:23.187Z,4.00
2019-01-04T03:48:52.766Z,4.00
2019-01-04T03:51:22.560Z,4.00
2019-01-04T03:53:51.898Z,4.00
2019-01-04T03:56:21.298Z,4.00
2019-01-04T03:58:50.774Z,4.00
2019-01-04T04:01:20.254Z,4.10
2019-01-04T04:03:49.860Z,4.10
2019-01-04T04:06:19.232Z,4.20
2019-01-04T04:08:48.697Z,4.20
2019-01-04T04:11:18.153Z,4.30
2019-01-04T04:13:47.725Z,4.20
2019-01-04T04:16:17.175Z,4.30
2019-01-04T04:18:46.619Z,4.30
2019-01-04T04:21:16.045Z,4.30
2019-01-04T04:23:45.455Z,4.40
2019-01-04T04:26:14.838Z,4.40
2019-01-04T04:28:44.275Z,4.40
2019-01-04T04:31:13.719Z,4.50
2019-01-04T04:33:43.096Z,4.50
2019-01-04T04:36:12.721Z,4.50
2019-01-04T04:38:42.096Z,4.50
2019-01-04T04:41:11.498Z,4.50
2019-01-04T04:43:40.951Z,4.60
2019-01-04T04:46:10.690Z,4.60
2019-01-04T04:48:40.175Z,4.60
2019-01-04T04:51:09.542Z,4.60
2019-01-04T04:53:38.959Z,4.60
2019-01-04T04:56:08.402Z,4.70
2019-01-04T04:58:37.723Z,4.70
2019-01-04T05:01:07.087Z,4.70
2019-01-04T05:03:36.537Z,4.70
2019-01-04T05:06:05.909Z,4.70
2019-01-04T05:08:35.227Z,4.70
2019-01-04T05:11:04.604Z,4.70
2019-01-04T05:13:34.139Z,4.70
2019-01-04T05:16:03.718Z,4.70
2019-01-04T05:18:33.154Z,4.70
2019-01-04T05:21:02.484Z,4.70
2019-01-04T05:23:31.980Z,4.70
2019-01-04T05:26:01.346Z,4.70
2019-01-04T05:28:30.716Z,4.70
2019-01-04T05:31:00.060Z,4.70
2019-01-04T05:33:29.423Z,4.70
2019-01-04T05:35:58.824Z,4.70
2019-01-04T05:38:28.121Z,4.70
2019-01-04T05:40:57.666Z,4.70
2019-01-04T05:43:27.319Z,4.70
2019-01-04T05:45:56.807Z,4.80
2019-01-04T05:48:26.346Z,4.70
2019-01-04T05:50:55.787Z,4.80
2019-01-04T05:53:25.218Z,4.80
2019-01-04T05:55:54.609Z,4.80
2019-01-04T05:58:24.051Z,4.80
2019-01-04T06:00:53.596Z,4.80
2019-01-04T06:03:23.025Z,4.80
2019-01-04T06:05:52.403Z,4.80
2019-01-04T06:08:21.761Z,4.80
2019-01-04T06:10:51.177Z,4.80
2019-01-04T06:13:20.753Z,4.80
2019-01-04T06:15:50.114Z,4.80
2019-01-04T06:18:19.615Z,4.80
2019-01-04T06:20:51.932Z,4.80
2019-01-04T06:23:21.397Z,4.70
2019-01-04T06:25:51.006Z,4.60
2019-01-04T06:28:20.605Z,4.60
2019-01-04T06:30:50.012Z,4.60
2019-01-04T06:33:19.378Z,4.50
2019-01-04T06:35:48.804Z,4.50
2019-01-04T06:38:18.201Z,4.40
2019-01-04T06:40:47.586Z,4.40
2019-01-04T06:43:16.980Z,4.30
2019-01-04T06:45:46.394Z,4.30
2019-01-04T06:48:15.796Z,4.40
2019-01-04T06:50:45.266Z,4.40
2019-01-04T06:53:14.656Z,4.30
2019-01-04T06:55:56.252Z,4.30
2019-01-04T06:58:25.803Z,4.30
2019-01-04T07:00:55.185Z,4.30
2019-01-04T07:03:24.615Z,4.40
2019-01-04T07:05:54.051Z,4.40
2019-01-04T07:08:23.670Z,4.40
2019-01-04T07:10:53.123Z,4.40
2019-01-04T07:13:22.592Z,4.40
2019-01-04T07:15:52.021Z,4.40
2019-01-04T07:18:22.460Z,4.40
2019-01-04T07:20:52.009Z,4.40
2019-01-04T07:23:21.401Z,4.30
2019-01-04T07:25:50.759Z,4.30
2019-01-04T07:28:20.130Z,4.30
2019-01-04T07:30:49.633Z,4.30
2019-01-04T07:33:19.092Z,4.40
2019-01-04T07:35:48.398Z,4.40
2019-01-04T07:38:17.725Z,4.40
2019-01-04T07:40:47.060Z,4.40
2019-01-04T07:43:16.766Z,4.50
2019-01-04T07:45:46.207Z,4.50
2019-01-04T07:48:15.606Z,4.50
2019-01-04T07:50:45.013Z,4.50
2019-01-04T07:53:14.522Z,4.60
2019-01-04T07:55:43.996Z,4.60
2019-01-04T07:58:13.612Z,4.50
2019-01-04T08:00:43.014Z,4.60
2019-01-04T08:03:23.403Z,4.70
2019-01-04T08:05:54.702Z,4.70
2019-01-04T08:08:24.138Z,4.70
2019-01-04T08:10:53.620Z,4.70
2019-01-04T08:13:23.328Z,4.70
2019-01-04T08:15:52.826Z,4.70
2019-01-04T08:18:22.345Z,4.70
2019-01-04T08:20:51.933Z,4.70
2019-01-04T08:23:21.555Z,4.70
2019-01-04T08:25:50.983Z,4.80
2019-01-04T08:28:23.450Z,4.80
2019-01-04T08:30:53.165Z,4.80
2019-01-04T08:33:22.578Z,4.80
2019-01-04T08:35:52.020Z,4.80
2019-01-04T08:38:21.551Z,4.80
2019-01-04T08:40:50.996Z,4.80
2019-01-04T08:43:20.370Z,4.90
2019-01-04T08:45:49.879Z,4.90
2019-01-04T08:48:19.242Z,4.90
2019-01-04T08:50:48.586Z,5.00
2019-01-04T08:53:19.481Z,5.00
2019-01-04T08:55:49.170Z,5.10
2019-01-04T08:58:19.071Z,5.10
2019-01-04T09:00:48.659Z,5.20
2019-01-04T09:03:18.088Z,5.20
2019-01-04T09:05:47.534Z,5.30
2019-01-04T09:08:16.970Z,5.30
2019-01-04T09:10:46.512Z,5.30
2019-01-04T09:13:15.904Z,5.30
2019-01-04T09:15:45.257Z,5.40
2019-01-04T09:18:14.615Z,5.50
2019-01-04T09:20:44.135Z,5.50
2019-01-04T09:23:14.211Z,5.60
2019-01-04T09:25:43.757Z,5.60
2019-01-04T09:28:18.018Z,5.70
2019-01-04T09:30:44.432Z,5.80
2019-01-04T09:33:14.825Z,5.80
2019-01-04T09:35:44.291Z,5.80
2019-01-04T09:38:13.816Z,5.80
2019-01-04T09:40:43.357Z,5.80
2019-01-04T09:43:12.871Z,5.80
2019-01-04T09:45:42.292Z,5.80
2019-01-04T09:48:11.693Z,5.80
2019-01-04T09:50:41.030Z,5.80
2019-01-04T09:53:10.352Z,5.80
2019-01-04T09:55:39.675Z,5.90
2019-01-04T09:58:09.011Z,6.00
2019-01-04T10:00:38.337Z,6.00
2019-01-04T10:03:09.750Z,6.10
2019-01-04T10:05:39.205Z,6.20
2019-01-04T10:08:08.553Z,6.20
2019-01-04T10:10:37.868Z,6.20
2019-01-04T10:13:07.211Z,6.10
2019-01-04T10:15:36.553Z,6.00
2019-01-04T10:18:06.064Z,6.10
2019-01-04T10:20:35.363Z,6.10
2019-01-04T10:23:04.727Z,6.00
2019-01-04T10:25:34.046Z,6.10
2019-01-04T10:28:03.409Z,6.10
2019-01-04T10:30:32.783Z,6.10
2019-01-04T10:33:02.084Z,6.10
2019-01-04T10:35:31.460Z,6.00
2019-01-04T10:38:00.822Z,6.00
2019-01-04T10:40:30.362Z,6.00
2019-01-04T10:42:59.829Z,6.00
2019-01-04T10:45:29.745Z,6.20
2019-01-04T10:47:59.116Z,6.20
2019-01-04T10:50:28.552Z,6.20
2019-01-04T10:52:57.875Z,6.20
2019-01-04T10:55:27.284Z,6.30
2019-01-04T10:57:56.619Z,6.30
2019-01-04T11:00:26.213Z,6.40
2019-01-04T11:02:55.560Z,6.30
2019-01-04T11:05:29.048Z,6.40
2019-01-04T11:07:58.350Z,6.40
2019-01-04T11:10:29.192Z,6.30
2019-01-04T11:12:58.521Z,6.30
2019-01-04T11:15:27.856Z,6.30
2019-01-04T11:17:57.246Z,6.40
2019-01-04T11:20:41.442Z,6.40
2019-01-04T11:23:53.854Z,6.40
2019-01-04T11:26:46.984Z,6.40
2019-01-04T11:30:15.298Z,6.40
2019-01-04T11:33:25.272Z,6.40
2019-01-04T11:36:14.927Z,6.30
2019-01-04T11:39:23.900Z,6.30
2019-01-04T11:42:44.093Z,6.20
2019-01-04T11:45:43.608Z,6.00
2019-01-04T11:48:26.901Z,5.90
2019-01-04T11:51:17.252Z,5.90
2019-01-04T11:53:46.703Z,6.00
2019-01-04T12:00:11.317Z,6.10
2019-01-04T12:02:46.472Z,6.10
2019-01-04T12:03:47.008Z,6.00
2019-01-04T12:05:18.192Z,6.00
2019-01-04T12:07:47.551Z,6.00
2019-01-04T12:10:16.984Z,5.90
2019-01-04T12:12:46.363Z,5.90
2019-01-04T12:15:24.387Z,5.90
2019-01-04T12:17:53.810Z,5.90
2019-01-04T12:20:23.219Z,6.00
2019-01-04T12:22:52.646Z,6.00
2019-01-04T12:25:22.163Z,6.10
2019-01-04T12:27:51.513Z,6.20
2019-01-04T12:30:21.133Z,6.20
2019-01-04T12:32:50.492Z,6.20
2019-01-04T12:35:19.804Z,6.20
2019-01-04T12:37:49.185Z,6.10
2019-01-04T12:40:18.544Z,6.10
2019-01-04T12:42:47.893Z,6.00
2019-01-04T12:45:17.250Z,6.00
2019-01-04T12:47:46.583Z,5.90
2019-01-04T12:50:15.953Z,5.90
2019-01-04T12:52:45.266Z,5.80
2019-01-04T12:55:14.655Z,5.80
2019-01-04T12:57:44.111Z,5.80
2019-01-04T13:00:14.025Z,5.80
2019-01-04T13:02:43.994Z,5.80
2019-01-04T13:05:33.869Z,5.80
2019-01-04T13:08:10.180Z,5.80
2019-01-04T13:11:06.856Z,5.70
2019-01-04T13:13:41.980Z,5.60
2019-01-04T13:16:14.162Z,5.60
2019-01-04T13:18:45.098Z,5.60
2019-01-04T13:21:33.400Z,5.60
2019-01-04T13:24:07.093Z,5.60
2019-01-04T13:26:43.148Z,5.70
2019-01-04T13:29:21.245Z,5.70
2019-01-04T13:31:59.491Z,5.80
2019-01-04T13:34:45.905Z,5.80
2019-01-04T13:37:21.704Z,5.80
2019-01-04T13:39:59.726Z,5.80
2019-01-04T13:42:38.577Z,5.80
2019-01-04T13:45:14.974Z,5.60
2019-01-04T13:47:49.823Z,5.60
2019-01-04T13:50:31.677Z,5.50
2019-01-04T13:53:23.440Z,5.50
2019-01-04T13:56:03.900Z,5.40
2019-01-04T13:58:42.606Z,5.30
2019-01-04T14:01:53.412Z,5.30
2019-01-04T14:04:36.265Z,5.20
2019-01-04T14:07:14.545Z,5.10
2019-01-04T14:09:48.286Z,5.10
2019-01-04T14:12:32.175Z,5.10
2019-01-04T14:15:28.306Z,5.00
2019-01-04T14:18:00.220Z,4.90
2019-01-04T14:20:38.514Z,4.80
2019-01-04T14:23:28.899Z,4.80
2019-01-04T14:26:12.541Z,4.70
2019-01-04T14:28:55.702Z,4.70
2019-01-04T14:31:35.053Z,4.70
2019-01-04T14:34:07.794Z,4.70
2019-01-04T14:36:48.665Z,4.60
2019-01-04T14:39:24.572Z,4.60
2019-01-04T14:41:54.004Z,4.60
2019-01-04T14:44:48.223Z,4.50
2019-01-04T14:47:29.174Z,4.50
2019-01-04T14:50:13.438Z,4.50
2019-01-04T14:52:44.128Z,4.50
2019-01-04T14:55:22.166Z,4.40
2019-01-04T14:57:59.521Z,4.40
2019-01-04T15:03:46.856Z,4.40
2019-01-04T15:06:33.314Z,4.40
2019-01-04T15:09:12.564Z,4.50
2019-01-04T15:11:49.906Z,4.50
2019-01-04T15:14:50.730Z,4.50
2019-01-04T15:17:30.645Z,4.40
2019-01-04T15:20:14.470Z,4.40
2019-01-04T15:22:51.191Z,4.40
2019-01-04T15:25:41.107Z,4.40
2019-01-04T15:28:12.493Z,4.40
2019-01-04T15:30:51.523Z,4.40
2019-01-04T15:33:23.554Z,4.40
2019-01-04T15:36:02.938Z,4.40
2019-01-04T15:38:45.750Z,4.40
2019-01-04T15:41:21.072Z,4.30
2019-01-04T15:44:00.585Z,4.30
2019-01-04T15:46:49.787Z,4.30
2019-01-04T15:49:34.741Z,4.30
2019-01-04T15:52:16.179Z,4.30
2019-01-04T15:54:50.890Z,4.30
2019-01-04T15:57:30.677Z,4.30
2019-01-04T16:00:09.930Z,4.30
2019-01-04T16:02:52.830Z,4.30
2019-01-04T16:05:27.682Z,4.40
2019-01-04T16:08:08.156Z,4.30
2019-01-04T16:10:48.604Z,4.30
2019-01-04T16:13:23.984Z,4.30
2019-01-04T16:16:12.559Z,4.30
2019-01-04T16:18:51.873Z,4.20
2019-01-04T16:21:43.058Z,4.30
2019-01-04T16:24:16.221Z,4.20
2019-01-04T16:27:05.475Z,4.20
2019-01-04T16:29:50.436Z,4.10
2019-01-04T16:32:33.075Z,4.10
2019-01-04T16:35:12.326Z,4.10
2019-01-04T16:37:50.230Z,4.10
2019-01-04T16:40:20.008Z,4.10
2019-01-04T16:43:02.620Z,4.00
2019-01-04T16:45:36.820Z,4.00
2019-01-04T16:48:14.813Z,4.00
2019-01-04T16:51:00.456Z,4.10
2019-01-04T16:53:31.819Z,4.10
2019-01-04T16:56:07.101Z,4.10
2019-01-04T16:58:55.648Z,4.10
2019-01-04T17:01:33.708Z,4.10
2019-01-04T17:04:07.713Z,4.10
2019-01-04T17:06:49.992Z,4.00
2019-01-04T17:09:27.196Z,4.00
2019-01-04T17:12:04.450Z,4.00
2019-01-04T17:14:57.677Z,3.90
2019-01-04T17:17:27.051Z,4.00
2019-01-04T17:20:07.791Z,4.00
2019-01-04T17:22:56.373Z,4.00
2019-01-04T17:25:30.013Z,4.00
2019-01-04T17:28:14.988Z,4.00
2019-01-04T17:30:54.025Z,4.00
2019-01-04T17:33:28.924Z,4.00
2019-01-04T17:36:07.479Z,3.90
2019-01-04T17:38:45.080Z,3.90
2019-01-04T17:41:20.030Z,3.90
2019-01-04T17:43:50.951Z,3.90
2019-01-04T17:46:30.745Z,3.80
2019-01-04T17:49:15.199Z,3.80
2019-01-04T17:52:08.564Z,3.80
2019-01-04T17:54:46.725Z,3.80
2019-01-04T17:57:19.768Z,3.80
2019-01-04T18:00:06.755Z,3.80
2019-01-04T18:02:40.830Z,3.80
2019-01-04T18:05:26.819Z,3.90
2019-01-04T18:08:07.983Z,3.80
2019-01-04T18:10:43.813Z,3.90
2019-01-04T18:13:19.263Z,3.80
2019-01-04T18:16:00.445Z,3.80
2019-01-04T18:18:34.505Z,3.80
2019-01-04T18:24:07.274Z,3.80
2019-01-04T18:26:43.602Z,3.80
2019-01-04T18:29:27.741Z,3.90
2019-01-04T18:32:11.007Z,3.90
2019-01-04T18:34:48.412Z,3.90
2019-01-04T18:38:07.965Z,3.90
2019-01-04T18:40:43.343Z,3.90
2019-01-04T18:43:13.167Z,3.90
2019-01-04T18:45:49.328Z,3.90
2019-01-04T18:48:31.861Z,4.00
2019-01-04T18:51:14.436Z,4.00
2019-01-04T18:53:51.717Z,4.00
2019-01-04T18:56:28.173Z,4.00
2019-01-04T18:59:13.161Z,3.90
2019-01-04T19:01:44.969Z,3.90
2019-01-04T19:04:29.921Z,3.90
2019-01-04T19:07:04.453Z,3.90
2019-01-04T19:12:59.383Z,3.90
2019-01-04T19:15:33.409Z,4.00
2019-01-04T19:18:11.109Z,4.00
2019-01-04T19:20:46.252Z,4.00
2019-01-04T19:23:17.983Z,4.10
2019-01-04T19:25:55.765Z,4.10
2019-01-04T19:28:34.774Z,4.20
2019-01-04T19:31:15.053Z,4.20
2019-01-04T19:33:45.934Z,4.20
2019-01-04T19:36:19.500Z,4.30
2019-01-04T19:38:58.275Z,4.30
2019-01-04T19:41:31.031Z,4.30
2019-01-04T19:44:21.144Z,4.30
2019-01-04T19:47:08.667Z,4.30
2019-01-04T19:49:52.536Z,4.30
2019-01-04T19:52:37.367Z,4.30
2019-01-04T19:55:43.457Z,4.30
2019-01-04T19:58:24.672Z,4.30
2019-01-04T20:01:01.914Z,4.30
2019-01-04T20:03:50.354Z,4.30
2019-01-04T20:07:36.225Z,4.20
2019-01-04T20:11:12.409Z,4.30
2019-01-04T20:14:35.685Z,4.20
2019-01-04T20:17:31.708Z,4.20
2019-01-04T20:20:19.755Z,4.10
2019-01-04T20:23:18.135Z,4.20
2019-01-04T20:26:10.121Z,4.10
2019-01-04T20:29:07.727Z,4.10
2019-01-04T20:32:22.120Z,4.10
2019-01-04T20:35:29.386Z,4.20
2019-01-04T20:38:25.050Z,4.10
2019-01-04T20:41:33.652Z,4.10
2019-01-04T20:44:36.190Z,4.10
2019-01-04T20:47:50.967Z,4.10
2019-01-04T20:50:52.819Z,4.20
2019-01-04T20:54:28.964Z,4.20
2019-01-04T20:57:21.080Z,4.20
2019-01-04T21:00:26.431Z,4.10
2019-01-04T21:03:24.730Z,4.10
2019-01-04T21:06:29.986Z,4.10
2019-01-04T21:09:31.632Z,4.20
2019-01-04T21:12:41.640Z,4.20
2019-01-04T21:15:43.711Z,4.20
2019-01-04T21:18:34.102Z,4.20
2019-01-04T21:21:27.682Z,4.20
2019-01-04T21:24:16.487Z,4.20
2019-01-04T21:27:14.696Z,4.10
2019-01-04T21:30:12.879Z,4.10
2019-01-04T21:33:29.404Z,4.10
2019-01-04T21:36:19.324Z,4.10
2019-01-04T21:39:37.387Z,4.10
2019-01-04T21:42:37.206Z,4.10
2019-01-04T21:45:36.137Z,4.20
2019-01-04T21:48:41.057Z,4.10
2019-01-04T21:54:45.329Z,4.10
2019-01-04T21:57:46.622Z,4.10
2019-01-04T22:00:44.381Z,4.20
2019-01-04T22:03:46.902Z,4.20
2019-01-04T22:06:47.803Z,4.20
2019-01-04T22:10:04.594Z,4.20
2019-01-04T22:13:11.433Z,4.20
2019-01-04T22:16:22.303Z,4.10
2019-01-04T22:19:22.860Z,4.20
2019-01-04T22:22:24.322Z,4.10
2019-01-04T22:25:18.932Z,4.10
2019-01-04T22:28:11.113Z,4.10
2019-01-04T22:31:17.533Z,4.10
2019-01-04T22:34:24.351Z,4.20
2019-01-04T22:37:28.910Z,4.20
2019-01-04T22:40:33.314Z,4.20
2019-01-04T22:43:46.247Z,4.20
2019-01-04T22:46:47.282Z,4.20
2019-01-04T22:49:53.354Z,4.20
2019-01-04T22:52:57.674Z,4.20
2019-01-04T22:56:12.373Z,4.20
2019-01-04T22:59:10.900Z,4.30
2019-01-04T23:02:11.431Z,4.30
2019-01-04T23:05:19.263Z,4.30
2019-01-04T23:08:44.475Z,4.30
2019-01-04T23:11:56.086Z,4.30
2019-01-04T23:14:54.601Z,4.30
2019-01-04T23:17:52.941Z,4.40
2019-01-04T23:21:00.075Z,4.40
2019-01-04T23:23:56.509Z,4.40
2019-01-04T23:26:45.449Z,4.50
2019-01-04T23:29:44.593Z,4.50
2019-01-04T23:32:56.312Z,4.50
2019-01-04T23:35:50.784Z,4.50
2019-01-04T23:39:20.446Z,4.40
2019-01-04T23:42:12.874Z,4.50
2019-01-04T23:45:07.283Z,4.50
2019-01-04T23:47:54.238Z,4.50
2019-01-04T23:51:03.574Z,4.50
2019-01-04T23:53:57.744Z,4.50
2019-01-04T23:56:44.411Z,4.40
2019-01-04T23:59:31.827Z,4.50
